sensor_id;sensor_type;location;lat;lon;timestamp;P1;durP1;ratioP1;P2;durP2;ratioP2
26634;SDS011;14490;54.208;37.686;2022-07-12T00:00:20;3.40;;;2.20;;
26634;SDS011;14490;54.208;37.686;2022-07-12T00:02:47;5.03;;;2.03;;
26634;SDS011;14490;54.208;37.686;2022-07-12T00:05:15;3.53;;;1.63;;
26634;SDS011;14490;54.208;37.686;2022-07-12T00:07:43;5.63;;;2.25;;
26634;SDS011;14490;54.208;37.686;2022-07-12T00:10:13;8.88;;;1.95;;
26634;SDS011;14490;54.208;37.686;2022-07-12T00:12:40;3.70;;;2.00;;
26634;SDS011;14490;54.208;37.686;2022-07-12T00:15:08;4.65;;;1.90;;
26634;SDS011;14490;54.208;37.686;2022-07-12T00:17:37;2.25;;;2.05;;
26634;SDS011;14490;54.208;37.686;2022-07-12T00:20:05;3.60;;;1.75;;
26634;SDS011;14490;54.208;37.686;2022-07-12T00:22:33;6.28;;;1.80;;
26634;SDS011;14490;54.208;37.686;2022-07-12T00:25:01;4.50;;;1.88;;
26634;SDS011;14490;54.208;37.686;2022-07-12T00:27:31;4.50;;;2.00;;
26634;SDS011;14490;54.208;37.686;2022-07-12T00:29:59;3.25;;;1.52;;
26634;SDS011;14490;54.208;37.686;2022-07-12T00:32:27;4.13;;;2.25;;
26634;SDS011;14490;54.208;37.686;2022-07-12T00:34:54;5.15;;;1.88;;
26634;SDS011;14490;54.208;37.686;2022-07-12T00:37:22;5.93;;;1.60;;
26634;SDS011;14490;54.208;37.686;2022-07-12T00:39:50;2.35;;;2.00;;
26634;SDS011;14490;54.208;37.686;2022-07-12T00:42:18;6.18;;;1.88;;
26634;SDS011;14490;54.208;37.686;2022-07-12T00:44:48;3.30;;;1.30;;
26634;SDS011;14490;54.208;37.686;2022-07-12T00:47:18;6.90;;;1.73;;
26634;SDS011;14490;54.208;37.686;2022-07-12T00:49:55;4.40;;;1.73;;
26634;SDS011;14490;54.208;37.686;2022-07-12T00:52:23;4.43;;;1.50;;
26634;SDS011;14490;54.208;37.686;2022-07-12T00:54:51;2.78;;;1.23;;
26634;SDS011;14490;54.208;37.686;2022-07-12T00:57:19;4.57;;;1.25;;
26634;SDS011;14490;54.208;37.686;2022-07-12T00:59:48;4.43;;;1.98;;
26634;SDS011;14490;54.208;37.686;2022-07-12T01:02:16;4.78;;;1.70;;
26634;SDS011;14490;54.208;37.686;2022-07-12T01:04:44;6.30;;;1.58;;
26634;SDS011;14490;54.208;37.686;2022-07-12T01:07:12;7.22;;;1.90;;
26634;SDS011;14490;54.208;37.686;2022-07-12T01:09:41;3.15;;;2.05;;
26634;SDS011;14490;54.208;37.686;2022-07-12T01:12:09;6.95;;;1.85;;
26634;SDS011;14490;54.208;37.686;2022-07-12T01:14:37;5.28;;;2.08;;
26634;SDS011;14490;54.208;37.686;2022-07-12T01:17:07;7.60;;;2.10;;
26634;SDS011;14490;54.208;37.686;2022-07-12T01:19:35;2.67;;;1.88;;
26634;SDS011;14490;54.208;37.686;2022-07-12T01:22:04;8.57;;;1.85;;
26634;SDS011;14490;54.208;37.686;2022-07-12T01:24:37;11.13;;;1.98;;
26634;SDS011;14490;54.208;37.686;2022-07-12T01:27:05;3.70;;;1.63;;
26634;SDS011;14490;54.208;37.686;2022-07-12T01:29:34;2.88;;;1.98;;
26634;SDS011;14490;54.208;37.686;2022-07-12T01:32:03;4.97;;;2.10;;
26634;SDS011;14490;54.208;37.686;2022-07-12T01:34:46;5.18;;;1.90;;
26634;SDS011;14490;54.208;37.686;2022-07-12T01:37:14;3.90;;;1.70;;
26634;SDS011;14490;54.208;37.686;2022-07-12T01:39:45;6.47;;;1.60;;
26634;SDS011;14490;54.208;37.686;2022-07-12T01:42:14;3.87;;;2.10;;
26634;SDS011;14490;54.208;37.686;2022-07-12T01:44:42;5.68;;;1.77;;
26634;SDS011;14490;54.208;37.686;2022-07-12T01:47:09;4.78;;;1.63;;
26634;SDS011;14490;54.208;37.686;2022-07-12T01:49:37;3.67;;;1.20;;
26634;SDS011;14490;54.208;37.686;2022-07-12T01:52:05;4.65;;;1.40;;
26634;SDS011;14490;54.208;37.686;2022-07-12T01:54:34;3.15;;;1.75;;
26634;SDS011;14490;54.208;37.686;2022-07-12T01:57:04;8.77;;;1.60;;
26634;SDS011;14490;54.208;37.686;2022-07-12T01:59:32;7.40;;;1.75;;
26634;SDS011;14490;54.208;37.686;2022-07-12T02:02:01;3.03;;;1.67;;
26634;SDS011;14490;54.208;37.686;2022-07-12T02:04:29;5.47;;;1.63;;
26634;SDS011;14490;54.208;37.686;2022-07-12T02:06:57;4.63;;;1.80;;
26634;SDS011;14490;54.208;37.686;2022-07-12T02:09:25;5.35;;;1.45;;
26634;SDS011;14490;54.208;37.686;2022-07-12T02:11:54;7.60;;;2.40;;
26634;SDS011;14490;54.208;37.686;2022-07-12T02:14:23;1.73;;;1.63;;
26634;SDS011;14490;54.208;37.686;2022-07-12T02:16:52;10.35;;;2.03;;
26634;SDS011;14490;54.208;37.686;2022-07-12T02:19:19;1.73;;;1.52;;
26634;SDS011;14490;54.208;37.686;2022-07-12T02:21:47;10.25;;;3.08;;
26634;SDS011;14490;54.208;37.686;2022-07-12T02:24:15;5.93;;;2.05;;
26634;SDS011;14490;54.208;37.686;2022-07-12T02:26:42;5.18;;;2.05;;
26634;SDS011;14490;54.208;37.686;2022-07-12T02:29:10;2.90;;;1.83;;
26634;SDS011;14490;54.208;37.686;2022-07-12T02:31:39;4.63;;;2.08;;
26634;SDS011;14490;54.208;37.686;2022-07-12T02:34:07;3.72;;;1.60;;
26634;SDS011;14490;54.208;37.686;2022-07-12T02:36:34;8.52;;;1.77;;
26634;SDS011;14490;54.208;37.686;2022-07-12T02:39:02;5.05;;;1.70;;
26634;SDS011;14490;54.208;37.686;2022-07-12T02:41:30;5.22;;;1.13;;
26634;SDS011;14490;54.208;37.686;2022-07-12T02:44:00;3.58;;;2.30;;
26634;SDS011;14490;54.208;37.686;2022-07-12T02:46:29;6.00;;;1.67;;
26634;SDS011;14490;54.208;37.686;2022-07-12T02:48:59;5.05;;;1.90;;
26634;SDS011;14490;54.208;37.686;2022-07-12T02:51:27;8.05;;;2.08;;
26634;SDS011;14490;54.208;37.686;2022-07-12T02:53:54;3.58;;;1.67;;
26634;SDS011;14490;54.208;37.686;2022-07-12T02:56:24;5.90;;;1.25;;
26634;SDS011;14490;54.208;37.686;2022-07-12T02:58:53;7.97;;;1.52;;
26634;SDS011;14490;54.208;37.686;2022-07-12T03:01:20;2.17;;;1.23;;
26634;SDS011;14490;54.208;37.686;2022-07-12T03:03:48;2.13;;;1.10;;
26634;SDS011;14490;54.208;37.686;2022-07-12T03:06:17;4.38;;;2.22;;
26634;SDS011;14490;54.208;37.686;2022-07-12T03:08:45;8.02;;;2.17;;
26634;SDS011;14490;54.208;37.686;2022-07-12T03:11:13;3.92;;;1.85;;
26634;SDS011;14490;54.208;37.686;2022-07-12T03:13:41;7.43;;;2.17;;
26634;SDS011;14490;54.208;37.686;2022-07-12T03:16:08;6.22;;;2.30;;
26634;SDS011;14490;54.208;37.686;2022-07-12T03:18:37;4.40;;;2.15;;
26634;SDS011;14490;54.208;37.686;2022-07-12T03:21:07;35.43;;;2.97;;
26634;SDS011;14490;54.208;37.686;2022-07-12T03:23:36;11.05;;;3.25;;
26634;SDS011;14490;54.208;37.686;2022-07-12T03:26:06;5.93;;;2.85;;
26634;SDS011;14490;54.208;37.686;2022-07-12T03:28:34;8.80;;;2.80;;
26634;SDS011;14490;54.208;37.686;2022-07-12T03:31:01;3.03;;;1.75;;
26634;SDS011;14490;54.208;37.686;2022-07-12T03:33:29;7.55;;;3.40;;
26634;SDS011;14490;54.208;37.686;2022-07-12T03:35:56;9.27;;;4.68;;
26634;SDS011;14490;54.208;37.686;2022-07-12T03:38:25;6.60;;;4.57;;
26634;SDS011;14490;54.208;37.686;2022-07-12T03:43:23;6.75;;;3.55;;
26634;SDS011;14490;54.208;37.686;2022-07-12T03:45:54;9.88;;;3.20;;
26634;SDS011;14490;54.208;37.686;2022-07-12T03:48:22;8.90;;;4.30;;
26634;SDS011;14490;54.208;37.686;2022-07-12T03:50:51;3.88;;;3.10;;
26634;SDS011;14490;54.208;37.686;2022-07-12T03:53:18;6.63;;;3.38;;
26634;SDS011;14490;54.208;37.686;2022-07-12T03:55:46;3.90;;;3.42;;
26634;SDS011;14490;54.208;37.686;2022-07-12T03:58:14;6.10;;;3.75;;
26634;SDS011;14490;54.208;37.686;2022-07-12T04:00:43;8.13;;;3.97;;
26634;SDS011;14490;54.208;37.686;2022-07-12T04:03:11;6.30;;;4.50;;
26634;SDS011;14490;54.208;37.686;2022-07-12T04:05:38;3.30;;;3.00;;
26634;SDS011;14490;54.208;37.686;2022-07-12T04:08:06;11.25;;;4.50;;
26634;SDS011;14490;54.208;37.686;2022-07-12T04:10:34;8.80;;;5.25;;
26634;SDS011;14490;54.208;37.686;2022-07-12T04:13:15;6.88;;;3.63;;
26634;SDS011;14490;54.208;37.686;2022-07-12T04:15:45;9.73;;;5.82;;
26634;SDS011;14490;54.208;37.686;2022-07-12T04:18:12;10.63;;;4.60;;
26634;SDS011;14490;54.208;37.686;2022-07-12T04:20:41;5.78;;;4.75;;
26634;SDS011;14490;54.208;37.686;2022-07-12T04:23:09;9.25;;;5.00;;
26634;SDS011;14490;54.208;37.686;2022-07-12T04:25:36;8.45;;;4.75;;
26634;SDS011;14490;54.208;37.686;2022-07-12T04:28:04;4.38;;;2.80;;
26634;SDS011;14490;54.208;37.686;2022-07-12T04:30:34;7.13;;;4.82;;
26634;SDS011;14490;54.208;37.686;2022-07-12T04:33:03;17.17;;;6.68;;
26634;SDS011;14490;54.208;37.686;2022-07-12T04:35:31;10.05;;;6.82;;
26634;SDS011;14490;54.208;37.686;2022-07-12T04:37:58;13.05;;;6.70;;
26634;SDS011;14490;54.208;37.686;2022-07-12T04:40:26;11.90;;;6.53;;
26634;SDS011;14490;54.208;37.686;2022-07-12T04:42:54;11.30;;;5.70;;
26634;SDS011;14490;54.208;37.686;2022-07-12T04:45:22;12.85;;;6.43;;
26634;SDS011;14490;54.208;37.686;2022-07-12T04:47:49;7.43;;;5.35;;
26634;SDS011;14490;54.208;37.686;2022-07-12T04:50:21;10.80;;;5.78;;
26634;SDS011;14490;54.208;37.686;2022-07-12T04:52:51;11.10;;;5.55;;
26634;SDS011;14490;54.208;37.686;2022-07-12T04:55:19;17.55;;;6.13;;
26634;SDS011;14490;54.208;37.686;2022-07-12T04:57:46;12.32;;;4.88;;
26634;SDS011;14490;54.208;37.686;2022-07-12T05:00:14;8.20;;;5.28;;
26634;SDS011;14490;54.208;37.686;2022-07-12T05:02:42;6.55;;;5.53;;
26634;SDS011;14490;54.208;37.686;2022-07-12T05:05:10;6.30;;;5.40;;
26634;SDS011;14490;54.208;37.686;2022-07-12T05:07:42;6.50;;;4.00;;
26634;SDS011;14490;54.208;37.686;2022-07-12T05:10:09;6.03;;;4.40;;
26634;SDS011;14490;54.208;37.686;2022-07-12T05:12:37;7.43;;;2.88;;
26634;SDS011;14490;54.208;37.686;2022-07-12T05:15:06;7.40;;;3.40;;
26634;SDS011;14490;54.208;37.686;2022-07-12T05:17:34;5.50;;;2.50;;
26634;SDS011;14490;54.208;37.686;2022-07-12T05:20:04;6.63;;;2.60;;
26634;SDS011;14490;54.208;37.686;2022-07-12T05:22:33;3.13;;;2.45;;
26634;SDS011;14490;54.208;37.686;2022-07-12T05:25:02;6.65;;;2.40;;
26634;SDS011;14490;54.208;37.686;2022-07-12T05:27:31;4.55;;;2.30;;
26634;SDS011;14490;54.208;37.686;2022-07-12T05:30:02;2.85;;;1.92;;
26634;SDS011;14490;54.208;37.686;2022-07-12T05:32:31;3.70;;;1.92;;
26634;SDS011;14490;54.208;37.686;2022-07-12T05:34:59;4.43;;;2.00;;
26634;SDS011;14490;54.208;37.686;2022-07-12T05:37:26;3.75;;;2.00;;
26634;SDS011;14490;54.208;37.686;2022-07-12T05:39:55;3.53;;;1.70;;
26634;SDS011;14490;54.208;37.686;2022-07-12T05:42:24;3.00;;;1.52;;
26634;SDS011;14490;54.208;37.686;2022-07-12T05:44:52;4.25;;;1.33;;
26634;SDS011;14490;54.208;37.686;2022-07-12T05:47:20;3.88;;;1.80;;
26634;SDS011;14490;54.208;37.686;2022-07-12T05:49:48;2.63;;;1.50;;
26634;SDS011;14490;54.208;37.686;2022-07-12T05:52:16;3.20;;;1.15;;
26634;SDS011;14490;54.208;37.686;2022-07-12T05:55:01;5.25;;;1.25;;
26634;SDS011;14490;54.208;37.686;2022-07-12T05:57:31;2.78;;;1.20;;
26634;SDS011;14490;54.208;37.686;2022-07-12T06:00:01;4.40;;;1.70;;
26634;SDS011;14490;54.208;37.686;2022-07-12T06:02:32;3.75;;;0.93;;
26634;SDS011;14490;54.208;37.686;2022-07-12T06:05:06;2.45;;;1.00;;
26634;SDS011;14490;54.208;37.686;2022-07-12T06:07:47;1.23;;;0.70;;
26634;SDS011;14490;54.208;37.686;2022-07-12T06:10:18;1.60;;;1.02;;
26634;SDS011;14490;54.208;37.686;2022-07-12T06:12:47;1.10;;;1.00;;
26634;SDS011;14490;54.208;37.686;2022-07-12T06:15:16;0.98;;;0.77;;
26634;SDS011;14490;54.208;37.686;2022-07-12T06:17:44;0.95;;;0.95;;
26634;SDS011;14490;54.208;37.686;2022-07-12T06:20:13;2.55;;;0.90;;
26634;SDS011;14490;54.208;37.686;2022-07-12T06:22:43;1.70;;;0.60;;
26634;SDS011;14490;54.208;37.686;2022-07-12T06:25:10;2.40;;;1.60;;
26634;SDS011;14490;54.208;37.686;2022-07-12T06:27:38;1.50;;;1.08;;
26634;SDS011;14490;54.208;37.686;2022-07-12T06:30:10;1.58;;;0.75;;
26634;SDS011;14490;54.208;37.686;2022-07-12T06:32:38;1.20;;;0.55;;
26634;SDS011;14490;54.208;37.686;2022-07-12T06:35:06;2.83;;;0.85;;
26634;SDS011;14490;54.208;37.686;2022-07-12T06:37:35;1.15;;;0.70;;
26634;SDS011;14490;54.208;37.686;2022-07-12T06:40:03;1.10;;;0.80;;
26634;SDS011;14490;54.208;37.686;2022-07-12T06:42:32;3.15;;;1.80;;
26634;SDS011;14490;54.208;37.686;2022-07-12T06:45:01;0.70;;;0.70;;
26634;SDS011;14490;54.208;37.686;2022-07-12T06:50:06;2.45;;;1.40;;
26634;SDS011;14490;54.208;37.686;2022-07-12T06:52:34;2.03;;;0.70;;
26634;SDS011;14490;54.208;37.686;2022-07-12T06:55:03;1.33;;;0.85;;
26634;SDS011;14490;54.208;37.686;2022-07-12T06:57:32;0.70;;;0.52;;
26634;SDS011;14490;54.208;37.686;2022-07-12T07:00:01;2.08;;;0.70;;
26634;SDS011;14490;54.208;37.686;2022-07-12T07:02:30;1.33;;;0.90;;
26634;SDS011;14490;54.208;37.686;2022-07-12T07:04:58;0.60;;;0.60;;
26634;SDS011;14490;54.208;37.686;2022-07-12T07:07:29;2.22;;;0.88;;
26634;SDS011;14490;54.208;37.686;2022-07-12T07:09:58;0.82;;;0.60;;
26634;SDS011;14490;54.208;37.686;2022-07-12T07:12:28;1.65;;;1.02;;
26634;SDS011;14490;54.208;37.686;2022-07-12T07:15:00;1.08;;;0.73;;
26634;SDS011;14490;54.208;37.686;2022-07-12T07:17:28;2.55;;;0.77;;
26634;SDS011;14490;54.208;37.686;2022-07-12T07:20:05;1.67;;;0.60;;
26634;SDS011;14490;54.208;37.686;2022-07-12T07:22:37;0.93;;;0.60;;
26634;SDS011;14490;54.208;37.686;2022-07-12T07:25:05;1.07;;;0.90;;
26634;SDS011;14490;54.208;37.686;2022-07-12T07:27:37;0.82;;;0.63;;
26634;SDS011;14490;54.208;37.686;2022-07-12T07:30:10;0.80;;;0.70;;
26634;SDS011;14490;54.208;37.686;2022-07-12T07:32:56;1.10;;;0.80;;
26634;SDS011;14490;54.208;37.686;2022-07-12T07:35:25;1.77;;;0.50;;
26634;SDS011;14490;54.208;37.686;2022-07-12T07:37:56;1.98;;;0.85;;
26634;SDS011;14490;54.208;37.686;2022-07-12T07:40:27;1.00;;;0.90;;
26634;SDS011;14490;54.208;37.686;2022-07-12T07:43:00;1.63;;;0.80;;
26634;SDS011;14490;54.208;37.686;2022-07-12T07:45:28;0.98;;;0.70;;
26634;SDS011;14490;54.208;37.686;2022-07-12T07:47:58;0.70;;;0.63;;
26634;SDS011;14490;54.208;37.686;2022-07-12T07:50:29;3.42;;;1.08;;
26634;SDS011;14490;54.208;37.686;2022-07-12T07:53:00;0.77;;;0.70;;
26634;SDS011;14490;54.208;37.686;2022-07-12T07:55:35;0.82;;;0.70;;
26634;SDS011;14490;54.208;37.686;2022-07-12T07:58:09;1.98;;;1.40;;
26634;SDS011;14490;54.208;37.686;2022-07-12T08:00:39;1.73;;;0.82;;
26634;SDS011;14490;54.208;37.686;2022-07-12T08:03:10;4.70;;;0.70;;
26634;SDS011;14490;54.208;37.686;2022-07-12T08:05:41;1.98;;;0.63;;
26634;SDS011;14490;54.208;37.686;2022-07-12T08:08:12;4.68;;;1.20;;
26634;SDS011;14490;54.208;37.686;2022-07-12T08:10:48;2.65;;;1.10;;
26634;SDS011;14490;54.208;37.686;2022-07-12T08:13:19;0.60;;;0.50;;
26634;SDS011;14490;54.208;37.686;2022-07-12T08:15:50;0.95;;;0.75;;
26634;SDS011;14490;54.208;37.686;2022-07-12T08:18:27;2.35;;;0.82;;
26634;SDS011;14490;54.208;37.686;2022-07-12T08:20:58;1.85;;;0.77;;
26634;SDS011;14490;54.208;37.686;2022-07-12T08:23:31;0.60;;;0.60;;
26634;SDS011;14490;54.208;37.686;2022-07-12T08:26:02;3.13;;;1.00;;
26634;SDS011;14490;54.208;37.686;2022-07-12T08:28:30;0.70;;;0.65;;
26634;SDS011;14490;54.208;37.686;2022-07-12T08:30:58;2.47;;;1.13;;
26634;SDS011;14490;54.208;37.686;2022-07-12T08:33:26;0.75;;;0.73;;
26634;SDS011;14490;54.208;37.686;2022-07-12T08:35:54;0.90;;;0.50;;
26634;SDS011;14490;54.208;37.686;2022-07-12T08:38:23;2.42;;;0.90;;
26634;SDS011;14490;54.208;37.686;2022-07-12T08:40:52;3.10;;;1.05;;
26634;SDS011;14490;54.208;37.686;2022-07-12T08:43:20;1.63;;;1.27;;
26634;SDS011;14490;54.208;37.686;2022-07-12T08:45:47;1.65;;;0.80;;
26634;SDS011;14490;54.208;37.686;2022-07-12T08:48:16;1.23;;;0.80;;
26634;SDS011;14490;54.208;37.686;2022-07-12T08:50:43;2.08;;;0.75;;
26634;SDS011;14490;54.208;37.686;2022-07-12T08:53:28;1.65;;;0.70;;
26634;SDS011;14490;54.208;37.686;2022-07-12T08:55:58;4.70;;;0.70;;
26634;SDS011;14490;54.208;37.686;2022-07-12T08:58:26;1.55;;;0.50;;
26634;SDS011;14490;54.208;37.686;2022-07-12T09:00:54;1.75;;;0.70;;
26634;SDS011;14490;54.208;37.686;2022-07-12T09:03:23;2.70;;;0.88;;
26634;SDS011;14490;54.208;37.686;2022-07-12T09:05:56;3.30;;;1.00;;
26634;SDS011;14490;54.208;37.686;2022-07-12T09:08:26;6.07;;;1.30;;
26634;SDS011;14490;54.208;37.686;2022-07-12T09:11:01;6.28;;;1.25;;
26634;SDS011;14490;54.208;37.686;2022-07-12T09:13:47;1.50;;;0.80;;
26634;SDS011;14490;54.208;37.686;2022-07-12T09:16:59;2.83;;;1.02;;
26634;SDS011;14490;54.208;37.686;2022-07-12T09:19:30;1.83;;;0.90;;
26634;SDS011;14490;54.208;37.686;2022-07-12T09:21:58;2.55;;;1.17;;
26634;SDS011;14490;54.208;37.686;2022-07-12T09:24:29;3.15;;;1.00;;
26634;SDS011;14490;54.208;37.686;2022-07-12T09:26:57;1.75;;;0.70;;
26634;SDS011;14490;54.208;37.686;2022-07-12T09:29:31;2.72;;;0.70;;
26634;SDS011;14490;54.208;37.686;2022-07-12T09:32:07;3.47;;;1.00;;
26634;SDS011;14490;54.208;37.686;2022-07-12T09:34:58;4.90;;;1.10;;
26634;SDS011;14490;54.208;37.686;2022-07-12T09:37:44;4.03;;;1.17;;
26634;SDS011;14490;54.208;37.686;2022-07-12T09:40:24;1.67;;;1.20;;
26634;SDS011;14490;54.208;37.686;2022-07-12T09:43:06;3.40;;;1.42;;
26634;SDS011;14490;54.208;37.686;2022-07-12T09:45:39;3.45;;;1.20;;
26634;SDS011;14490;54.208;37.686;2022-07-12T09:48:18;1.00;;;0.98;;
26634;SDS011;14490;54.208;37.686;2022-07-12T09:51:00;2.20;;;1.27;;
26634;SDS011;14490;54.208;37.686;2022-07-12T09:53:38;5.60;;;1.20;;
26634;SDS011;14490;54.208;37.686;2022-07-12T09:56:18;1.20;;;1.10;;
26634;SDS011;14490;54.208;37.686;2022-07-12T09:58:47;0.80;;;0.70;;
26634;SDS011;14490;54.208;37.686;2022-07-12T10:01:22;1.40;;;1.30;;
26634;SDS011;14490;54.208;37.686;2022-07-12T10:03:57;2.25;;;1.20;;
26634;SDS011;14490;54.208;37.686;2022-07-12T10:09:06;2.75;;;0.82;;
26634;SDS011;14490;54.208;37.686;2022-07-12T10:11:50;3.33;;;0.70;;
26634;SDS011;14490;54.208;37.686;2022-07-12T10:14:22;0.63;;;0.63;;
26634;SDS011;14490;54.208;37.686;2022-07-12T10:16:51;1.13;;;0.70;;
26634;SDS011;14490;54.208;37.686;2022-07-12T10:19:22;1.40;;;0.70;;
26634;SDS011;14490;54.208;37.686;2022-07-12T10:21:55;0.88;;;0.80;;
26634;SDS011;14490;54.208;37.686;2022-07-12T10:24:46;1.35;;;0.70;;
26634;SDS011;14490;54.208;37.686;2022-07-12T10:27:30;1.63;;;1.15;;
26634;SDS011;14490;54.208;37.686;2022-07-12T10:30:13;1.70;;;0.80;;
26634;SDS011;14490;54.208;37.686;2022-07-12T10:32:48;1.58;;;0.82;;
26634;SDS011;14490;54.208;37.686;2022-07-12T10:35:24;1.00;;;0.90;;
26634;SDS011;14490;54.208;37.686;2022-07-12T10:38:14;1.80;;;0.88;;
26634;SDS011;14490;54.208;37.686;2022-07-12T10:40:48;0.98;;;0.70;;
26634;SDS011;14490;54.208;37.686;2022-07-12T10:43:23;2.30;;;0.88;;
26634;SDS011;14490;54.208;37.686;2022-07-12T10:46:14;0.82;;;0.70;;
26634;SDS011;14490;54.208;37.686;2022-07-12T10:48:46;6.53;;;1.25;;
26634;SDS011;14490;54.208;37.686;2022-07-12T10:51:17;1.15;;;1.00;;
26634;SDS011;14490;54.208;37.686;2022-07-12T10:53:46;1.88;;;0.95;;
26634;SDS011;14490;54.208;37.686;2022-07-12T10:56:16;3.17;;;1.20;;
26634;SDS011;14490;54.208;37.686;2022-07-12T10:58:51;2.65;;;1.20;;
26634;SDS011;14490;54.208;37.686;2022-07-12T11:01:22;2.90;;;1.45;;
26634;SDS011;14490;54.208;37.686;2022-07-12T11:06:23;3.70;;;1.23;;
26634;SDS011;14490;54.208;37.686;2022-07-12T11:08:56;1.27;;;0.95;;
26634;SDS011;14490;54.208;37.686;2022-07-12T11:14:58;2.47;;;0.70;;
26634;SDS011;14490;54.208;37.686;2022-07-12T11:21:39;3.65;;;0.90;;
26634;SDS011;14490;54.208;37.686;2022-07-12T11:24:15;2.28;;;1.00;;
26634;SDS011;14490;54.208;37.686;2022-07-12T11:26:53;1.95;;;0.82;;
26634;SDS011;14490;54.208;37.686;2022-07-12T11:29:29;1.13;;;0.88;;
26634;SDS011;14490;54.208;37.686;2022-07-12T11:32:00;1.35;;;1.02;;
26634;SDS011;14490;54.208;37.686;2022-07-12T11:34:35;1.25;;;0.80;;
26634;SDS011;14490;54.208;37.686;2022-07-12T11:37:04;1.77;;;1.05;;
26634;SDS011;14490;54.208;37.686;2022-07-12T11:39:32;2.47;;;0.90;;
26634;SDS011;14490;54.208;37.686;2022-07-12T11:42:03;1.58;;;0.75;;
26634;SDS011;14490;54.208;37.686;2022-07-12T11:44:42;2.90;;;0.85;;
26634;SDS011;14490;54.208;37.686;2022-07-12T11:47:13;1.17;;;0.73;;
26634;SDS011;14490;54.208;37.686;2022-07-12T11:49:43;1.25;;;0.70;;
26634;SDS011;14490;54.208;37.686;2022-07-12T11:52:22;1.48;;;0.68;;
26634;SDS011;14490;54.208;37.686;2022-07-12T11:55:06;8.05;;;0.77;;
26634;SDS011;14490;54.208;37.686;2022-07-12T11:57:40;0.65;;;0.65;;
26634;SDS011;14490;54.208;37.686;2022-07-12T12:00:17;1.10;;;0.75;;
26634;SDS011;14490;54.208;37.686;2022-07-12T12:02:53;1.83;;;0.70;;
26634;SDS011;14490;54.208;37.686;2022-07-12T12:05:29;2.17;;;0.70;;
26634;SDS011;14490;54.208;37.686;2022-07-12T12:08:14;7.43;;;0.82;;
26634;SDS011;14490;54.208;37.686;2022-07-12T12:10:53;2.97;;;0.90;;
26634;SDS011;14490;54.208;37.686;2022-07-12T12:13:23;2.15;;;1.15;;
26634;SDS011;14490;54.208;37.686;2022-07-12T12:15:58;0.73;;;0.70;;
26634;SDS011;14490;54.208;37.686;2022-07-12T12:18:31;1.58;;;0.77;;
26634;SDS011;14490;54.208;37.686;2022-07-12T12:21:02;4.45;;;1.00;;
26634;SDS011;14490;54.208;37.686;2022-07-12T12:23:33;1.35;;;0.82;;
26634;SDS011;14490;54.208;37.686;2022-07-12T12:26:09;0.80;;;0.80;;
26634;SDS011;14490;54.208;37.686;2022-07-12T12:28:46;1.75;;;1.30;;
26634;SDS011;14490;54.208;37.686;2022-07-12T12:33:51;1.40;;;1.30;;
26634;SDS011;14490;54.208;37.686;2022-07-12T12:36:23;2.50;;;1.10;;
26634;SDS011;14490;54.208;37.686;2022-07-12T12:38:55;2.40;;;0.95;;
26634;SDS011;14490;54.208;37.686;2022-07-12T12:41:37;2.22;;;1.30;;
26634;SDS011;14490;54.208;37.686;2022-07-12T12:46:50;2.30;;;1.30;;
26634;SDS011;14490;54.208;37.686;2022-07-12T12:52:47;2.22;;;1.00;;
26634;SDS011;14490;54.208;37.686;2022-07-12T12:55:16;14.90;;;1.85;;
26634;SDS011;14490;54.208;37.686;2022-07-12T12:57:44;1.88;;;0.70;;
26634;SDS011;14490;54.208;37.686;2022-07-12T13:00:13;1.10;;;0.70;;
26634;SDS011;14490;54.208;37.686;2022-07-12T13:05:18;1.58;;;1.02;;
26634;SDS011;14490;54.208;37.686;2022-07-12T13:07:51;0.80;;;0.80;;
26634;SDS011;14490;54.208;37.686;2022-07-12T13:10:23;1.85;;;0.70;;
26634;SDS011;14490;54.208;37.686;2022-07-12T13:12:51;3.83;;;1.00;;
26634;SDS011;14490;54.208;37.686;2022-07-12T13:15:19;2.72;;;0.75;;
26634;SDS011;14490;54.208;37.686;2022-07-12T13:17:47;1.05;;;0.90;;
26634;SDS011;14490;54.208;37.686;2022-07-12T13:20:16;2.90;;;0.60;;
26634;SDS011;14490;54.208;37.686;2022-07-12T13:22:45;1.23;;;0.70;;
26634;SDS011;14490;54.208;37.686;2022-07-12T13:25:18;2.05;;;0.73;;
26634;SDS011;14490;54.208;37.686;2022-07-12T13:27:47;1.70;;;1.02;;
26634;SDS011;14490;54.208;37.686;2022-07-12T13:30:16;0.93;;;0.70;;
26634;SDS011;14490;54.208;37.686;2022-07-12T13:32:45;1.40;;;0.70;;
26634;SDS011;14490;54.208;37.686;2022-07-12T13:35:16;1.10;;;0.82;;
26634;SDS011;14490;54.208;37.686;2022-07-12T13:37:43;1.77;;;0.70;;
26634;SDS011;14490;54.208;37.686;2022-07-12T13:40:13;3.55;;;0.80;;
26634;SDS011;14490;54.208;37.686;2022-07-12T13:42:42;1.70;;;0.70;;
26634;SDS011;14490;54.208;37.686;2022-07-12T13:45:13;2.70;;;0.88;;
26634;SDS011;14490;54.208;37.686;2022-07-12T13:47:47;1.02;;;0.50;;
26634;SDS011;14490;54.208;37.686;2022-07-12T13:51:06;0.70;;;0.60;;
26634;SDS011;14490;54.208;37.686;2022-07-12T13:53:35;1.50;;;0.50;;
26634;SDS011;14490;54.208;37.686;2022-07-12T13:56:05;1.25;;;0.88;;
26634;SDS011;14490;54.208;37.686;2022-07-12T14:01:02;1.10;;;0.60;;
26634;SDS011;14490;54.208;37.686;2022-07-12T14:03:36;3.17;;;0.60;;
26634;SDS011;14490;54.208;37.686;2022-07-12T14:08:34;1.63;;;0.90;;
26634;SDS011;14490;54.208;37.686;2022-07-12T14:11:05;2.80;;;0.60;;
26634;SDS011;14490;54.208;37.686;2022-07-12T14:13:40;2.20;;;0.90;;
26634;SDS011;14490;54.208;37.686;2022-07-12T14:16:08;3.90;;;0.60;;
26634;SDS011;14490;54.208;37.686;2022-07-12T14:18:38;4.22;;;1.13;;
26634;SDS011;14490;54.208;37.686;2022-07-12T14:21:09;2.17;;;0.93;;
26634;SDS011;14490;54.208;37.686;2022-07-12T14:23:49;0.85;;;0.52;;
26634;SDS011;14490;54.208;37.686;2022-07-12T14:26:22;3.13;;;1.00;;
26634;SDS011;14490;54.208;37.686;2022-07-12T14:28:52;1.63;;;1.38;;
26634;SDS011;14490;54.208;37.686;2022-07-12T14:31:20;3.42;;;0.93;;
26634;SDS011;14490;54.208;37.686;2022-07-12T14:33:48;1.05;;;0.60;;
26634;SDS011;14490;54.208;37.686;2022-07-12T14:36:16;2.38;;;0.75;;
26634;SDS011;14490;54.208;37.686;2022-07-12T14:38:44;2.80;;;0.82;;
26634;SDS011;14490;54.208;37.686;2022-07-12T14:41:12;4.00;;;1.00;;
26634;SDS011;14490;54.208;37.686;2022-07-12T14:46:19;2.15;;;1.00;;
26634;SDS011;14490;54.208;37.686;2022-07-12T14:48:52;2.70;;;0.70;;
26634;SDS011;14490;54.208;37.686;2022-07-12T14:51:20;1.58;;;0.55;;
26634;SDS011;14490;54.208;37.686;2022-07-12T14:53:49;2.83;;;0.95;;
26634;SDS011;14490;54.208;37.686;2022-07-12T14:56:19;7.40;;;0.85;;
26634;SDS011;14490;54.208;37.686;2022-07-12T14:58:47;2.47;;;0.73;;
26634;SDS011;14490;54.208;37.686;2022-07-12T15:01:18;3.65;;;2.08;;
26634;SDS011;14490;54.208;37.686;2022-07-12T15:03:48;3.60;;;0.80;;
26634;SDS011;14490;54.208;37.686;2022-07-12T15:06:16;1.38;;;1.10;;
26634;SDS011;14490;54.208;37.686;2022-07-12T15:08:53;3.63;;;0.85;;
26634;SDS011;14490;54.208;37.686;2022-07-12T15:11:21;2.60;;;0.60;;
26634;SDS011;14490;54.208;37.686;2022-07-12T15:13:53;2.70;;;0.77;;
26634;SDS011;14490;54.208;37.686;2022-07-12T15:16:28;2.50;;;0.90;;
26634;SDS011;14490;54.208;37.686;2022-07-12T15:19:01;1.17;;;0.60;;
26634;SDS011;14490;54.208;37.686;2022-07-12T15:21:32;1.77;;;0.80;;
26634;SDS011;14490;54.208;37.686;2022-07-12T15:24:02;1.58;;;0.73;;
26634;SDS011;14490;54.208;37.686;2022-07-12T15:29:09;2.08;;;0.65;;
26634;SDS011;14490;54.208;37.686;2022-07-12T15:31:43;3.47;;;0.90;;
26634;SDS011;14490;54.208;37.686;2022-07-12T15:34:19;4.97;;;1.08;;